KRIL

Rifle Garfield County Airport

Rifle, Colorado, USA
METAR KRIL 280053Z AUTO 26020KT 10SM CLR 27/M11 A2981 RMK AO2 PK WND 26027/0031 SLP025 T02721111
Observed Flight Rules
May-28 @ 00:53 UTC (22 minutes ago) Visual Flight Rules
Wind Visibility Clouds
260° at 20 knots 10 miles
  • Clear skies
Temperatures Readings
Current 27°C / 81°F
Dewpoint -11°C / 12°F
Humidity 7%
Altimeter 29.81" Hg
Pressure 1002.5 hPa
Elevation 1678
METAR KRIL 280053Z AUTO 26020KT 10SM CLR 27/M11 A2981 RMK AO2 PK WND 26027/0031 SLP025 T02721111
Observed Flight Rules
May-28 @ 00:53 UTC
(22 minutes ago)
VFR
Wind Visibility
260° at 20 knots 10 miles
Clouds
  • Clear skies
Temperature Dewpoint
27°C / 81°F -11°C / 12°F
Humidity Altimeter Pressure
7% 29.81" Hg 1002.5 hPa